Time;durP1;ratioP1;P1;durP2;ratioP2;P2;SDS_P1;SDS_P2;PMS_P1;PMS_P2;Temp;Humidity;BMP_temperature;BMP_pressure;BME280_temperature;BME280_humidity;BME280_pressure;Samples;Min_cycle;Max_cycle;Signal;HPM_P1;HPM_P2
2023/10/12 00:01:57;;;;;;;4.32;2.90;;;;;;;12.62;93.33;64279.38;5070010;28;20221;-55
2023/10/12 00:04:24;;;;;;;6.38;3.45;;;;;;;12.74;93.51;64292.00;5071401;28;20197;-53
2023/10/12 00:06:51;;;;;;;3.93;2.87;;;;;;;12.77;93.04;64295.28;5073633;28;20217;-54
2023/10/12 00:09:19;;;;;;;4.90;3.25;;;;;;;12.74;93.70;64292.00;5073467;28;20321;-54
2023/10/12 00:11:57;;;;;;;7.90;3.37;;;;;;;12.63;94.07;64282.44;5073516;28;20224;-54
2023/10/12 00:14:24;;;;;;;6.30;3.30;;;;;;;12.54;95.03;64270.59;5073652;28;20355;-54
2023/10/12 00:16:51;;;;;;;4.53;3.25;;;;;;;12.64;93.83;64278.50;5073214;28;20240;-54
2023/10/12 00:19:17;;;;;;;6.30;3.03;;;;;;;12.61;94.29;64277.72;5073364;28;20227;-55
2023/10/12 00:21:43;;;;;;;5.13;2.93;;;;;;;12.59;93.30;64276.09;5073303;28;20209;-54
2023/10/12 00:24:13;;;;;;;7.47;3.57;;;;;;;12.37;96.28;64253.94;5073128;28;20204;-51
2023/10/12 00:26:42;;;;;;;4.88;3.05;;;;;;;12.26;97.56;64239.34;5073512;28;20185;-53
2023/10/12 00:29:08;;;;;;;5.70;3.20;;;;;;;12.19;97.46;64231.66;5073562;28;20204;-53
2023/10/12 00:31:37;;;;;;;3.78;3.10;;;;;;;12.30;97.08;64241.22;5071668;28;20682;-52
2023/10/12 00:34:04;;;;;;;6.97;3.28;;;;;;;12.34;95.86;64248.13;5071749;28;20219;-51
2023/10/12 00:36:29;;;;;;;8.18;3.60;;;;;;;12.45;95.22;64257.66;5072953;28;20217;-51
2023/10/12 00:38:56;;;;;;;5.10;3.10;;;;;;;12.40;96.11;64254.72;5073118;28;20583;-52
2023/10/12 00:41:24;;;;;;;5.67;3.13;;;;;;;12.41;94.75;64253.25;5072962;28;20220;-52
2023/10/12 00:44:06;;;;;;;9.53;3.93;;;;;;;12.35;95.85;64246.69;5071563;28;20208;-52
2023/10/12 00:51:51;;;;;;;3.65;2.88;;;;;;;11.94;98.56;64204.28;5072710;28;20299;-52
2023/10/12 00:54:32;;;;;;;6.18;3.53;;;;;;;11.91;99.56;64201.53;5071453;28;20212;-52
2023/10/12 00:57:11;;;;;;;4.20;3.27;;;;;;;12.01;98.98;64207.44;5072795;28;20215;-52
2023/10/12 00:59:38;;;;;;;3.13;2.70;;;;;;;12.10;97.33;64221.81;5072877;28;20330;-55
2023/10/12 01:02:08;;;;;;;6.50;3.13;;;;;;;12.15;97.29;64227.28;5072511;28;20216;-54
2023/10/12 01:04:37;;;;;;;6.63;3.37;;;;;;;11.99;98.86;64209.75;5072986;28;20333;-52
2023/10/12 01:07:06;;;;;;;3.73;2.53;;;;;;;12.07;96.97;64218.50;5072637;28;20274;-54
2023/10/12 01:09:39;;;;;;;7.05;3.38;;;;;;;11.96;97.06;64206.47;5072486;28;20222;-55
2023/10/12 01:12:13;;;;;;;4.00;2.97;;;;;;;11.95;97.63;64205.34;5072615;28;20279;-55
2023/10/12 01:14:43;;;;;;;4.90;3.13;;;;;;;11.96;97.26;64203.94;5071558;28;20184;-53
2023/10/12 01:17:24;;;;;;;3.57;2.60;;;;;;;12.05;95.68;64216.31;5072249;28;20213;-51
2023/10/12 01:19:51;;;;;;;6.95;2.65;;;;;;;11.87;97.25;64194.63;5072604;28;20195;-52
2023/10/12 01:22:25;;;;;;;3.67;2.90;;;;;;;12.12;95.14;64224.00;5072233;28;20217;-51
2023/10/12 01:24:59;;;;;;;6.53;3.27;;;;;;;12.02;94.51;64213.56;5071396;28;20283;-52
2023/10/12 01:27:26;;;;;;;7.35;3.20;;;;;;;11.96;94.10;64204.47;5072231;28;20286;-51
2023/10/12 01:29:53;;;;;;;7.50;3.10;;;;;;;11.84;94.59;64193.31;5072311;28;20221;-51
2023/10/12 01:34:56;;;;;;;5.30;2.70;;;;;;;11.48;95.72;64154.38;5072238;28;20222;-53
2023/10/12 01:37:28;;;;;;;5.07;3.23;;;;;;;11.37;96.99;64142.34;5070745;28;20208;-53
2023/10/12 01:45:16;;;;;;;4.57;2.40;;;;;;;11.53;95.00;64157.88;5072432;28;20287;-54
2023/10/12 01:47:44;;;;;;;5.27;2.90;;;;;;;11.55;95.01;64162.59;5071978;28;20208;-54
2023/10/12 01:50:10;;;;;;;5.50;2.73;;;;;;;11.37;96.89;64142.34;5072350;28;20219;-53
2023/10/12 01:52:35;;;;;;;5.40;2.70;;;;;;;11.42;96.36;64142.75;5071709;28;20220;-55
2023/10/12 01:55:15;;;;;;;6.43;2.90;;;;;;;11.37;96.32;64140.34;5071764;28;20219;-55
2023/10/12 01:57:47;;;;;;;7.37;2.90;;;;;;;11.29;96.24;64131.06;5070631;28;20213;-55
2023/10/12 02:00:15;;;;;;;5.83;2.97;;;;;;;11.21;96.66;64122.81;5070479;28;20193;-55
2023/10/12 02:02:50;;;;;;;6.37;3.30;;;;;;;11.18;97.00;64119.00;5071747;28;20216;-55
2023/10/12 02:05:24;;;;;;;5.63;2.70;;;;;;;11.24;96.89;64131.16;5072183;28;20302;-55
2023/10/12 02:07:52;;;;;;;7.47;2.50;;;;;;;11.20;96.87;64124.25;5070084;28;20228;-55
2023/10/12 02:10:18;;;;;;;6.50;3.17;;;;;;;11.36;96.43;64139.25;5071270;28;20216;-55
2023/10/12 02:12:46;;;;;;;4.30;2.60;;;;;;;11.39;95.98;64144.53;5071542;28;20219;-54
2023/10/12 02:15:15;;;;;;;4.40;2.63;;;;;;;11.35;96.19;64140.69;5070631;28;20208;-55
2023/10/12 02:17:42;;;;;;;5.40;3.03;;;;;;;11.24;97.37;64128.63;5070194;28;20217;-54
2023/10/12 02:20:11;;;;;;;6.90;3.17;;;;;;;11.13;98.38;64116.06;5071513;28;20204;-55
2023/10/12 02:22:37;;;;;;;7.07;3.23;;;;;;;11.20;97.72;64123.72;5071379;28;20670;-54
2023/10/12 02:25:18;;;;;;;4.83;2.90;;;;;;;11.31;96.61;64133.78;5071728;28;20201;-54
2023/10/12 02:27:54;;;;;;;6.73;3.13;;;;;;;11.46;96.01;64150.22;5070962;28;20204;-54
2023/10/12 02:30:23;;;;;;;2.83;2.53;;;;;;;11.34;96.48;64136.53;5071674;28;20216;-52
2023/10/12 02:33:00;;;;;;;3.67;2.90;;;;;;;11.29;97.19;64131.59;5070814;28;20205;-52
2023/10/12 02:35:37;;;;;;;3.73;2.80;;;;;;;11.16;98.36;64119.88;5070657;28;20204;-54
2023/10/12 02:38:14;;;;;;;6.53;2.60;;;;;;;11.07;98.44;64114.53;5069935;28;20219;-52
2023/10/12 02:40:41;;;;;;;6.47;3.00;;;;;;;11.01;99.45;64100.91;5071330;28;20196;-51
2023/10/12 02:43:10;;;;;;;3.93;2.83;;;;;;;11.09;98.77;64112.19;5053385;28;20334;-52
2023/10/12 02:45:40;;;;;;;4.63;3.20;;;;;;;11.14;99.98;64120.22;5070914;28;20223;-52
2023/10/12 02:48:21;;;;;;;6.63;3.27;;;;;;;11.25;99.58;64124.69;5071076;28;20259;-52
2023/10/12 02:50:57;;;;;;;6.43;3.83;;;;;;;11.34;99.06;64136.53;5071293;28;20258;-51
2023/10/12 02:53:29;;;;;;;7.53;3.80;;;;;;;11.38;98.23;64141.44;5070859;28;20204;-51
2023/10/12 02:55:58;;;;;;;4.97;3.20;;;;;;;11.21;100.00;64122.81;5070828;28;20193;-51
2023/10/12 02:58:32;;;;;;;6.47;4.77;;;;;;;11.23;100.00;64127.00;5070797;28;20220;-52
2023/10/12 03:01:14;;;;;;;5.37;3.77;;;;;;;11.24;100.00;64128.63;5069627;28;20228;-52
2023/10/12 03:03:47;;;;;;;6.80;4.10;;;;;;;11.22;100.00;64125.91;5069570;28;20278;-52
2023/10/12 03:06:22;;;;;;;6.97;4.63;;;;;;;11.16;100.00;64117.34;5070842;28;20291;-51
2023/10/12 03:11:28;;;;;;;4.63;4.13;;;;;;;11.16;100.00;64116.81;5070808;28;20237;-52
2023/10/12 03:13:59;;;;;;;4.90;4.20;;;;;;;11.05;100.00;64107.81;5070600;28;20234;-52
2023/10/12 03:16:28;;;;;;;7.70;4.67;;;;;;;11.06;100.00;64108.38;5070679;28;20702;-52
2023/10/12 03:21:38;;;;;;;8.93;4.67;;;;;;;10.84;100.00;64084.84;5070863;28;20276;-55
2023/10/12 03:24:05;;;;;;;7.23;5.17;;;;;;;10.89;100.00;64090.31;5070748;28;20295;-53
2023/10/12 03:26:33;;;;;;;8.03;4.53;;;;;;;10.91;100.00;64095.00;5070424;28;20217;-54
2023/10/12 03:29:09;;;;;;;6.00;4.27;;;;;;;10.92;100.00;64091.06;5070321;28;20651;-55
2023/10/12 03:31:40;;;;;;;9.40;4.90;;;;;;;10.85;100.00;64085.91;5070289;28;20215;-55
2023/10/12 03:34:29;;;;;;;6.27;4.63;;;;;;;10.64;100.00;64063.50;5070643;28;20287;-54
2023/10/12 03:36:51;;;;;;;9.07;4.90;;;;;;;10.59;100.00;64058.00;5070176;28;20700;-58
2023/10/12 03:44:19;;;;;;;11.70;6.57;;;;;;;10.41;100.00;64037.75;5073999;28;20270;-55
2023/10/12 03:46:57;;;;;;;9.23;4.60;;;;;;;10.64;100.00;64062.94;5079689;22;20263;-54
2023/10/12 03:49:39;;;;;;;6.97;4.90;;;;;;;10.73;100.00;64073.34;5073716;28;20203;-55
2023/10/12 03:52:13;;;;;;;9.13;5.00;;;;;;;10.80;100.00;64082.97;5073629;28;20216;-57
2023/10/12 03:54:54;;;;;;;7.50;5.23;;;;;;;10.87;100.00;64088.66;5073669;28;20196;-54
2023/10/12 03:57:27;;;;;;;7.27;4.90;;;;;;;10.83;100.00;64081.75;5072728;28;20270;-54
2023/10/12 04:00:22;;;;;;;11.80;5.10;;;;;;;10.68;100.00;64069.84;5073854;28;20201;-53
2023/10/12 04:08:08;;;;;;;14.73;5.57;;;;;;;10.81;100.00;64084.63;5073928;28;20212;-52
2023/10/12 04:21:17;;;;;;;11.80;5.70;;;;;;;10.89;100.00;64090.31;5073686;28;20305;-57
2023/10/12 04:24:24;;;;;;;9.43;5.70;;;;;;;10.81;100.00;64079.03;5072152;28;20204;-52
2023/10/12 04:29:21;;;;;;;14.60;6.27;;;;;;;10.82;100.00;64083.19;5073563;28;20204;-53
2023/10/12 04:31:49;;;;;;;16.90;6.00;;;;;;;10.84;100.00;64082.88;5073360;28;20296;-52
2023/10/12 04:34:17;;;;;;;10.33;5.73;;;;;;;10.57;100.00;64052.75;5073256;28;20243;-51
2023/10/12 04:41:53;;;;;;;10.97;5.87;;;;;;;10.61;100.00;64060.19;5073212;28;20216;-52
2023/10/12 04:46:58;;;;;;;8.13;5.83;;;;;;;10.52;100.00;64050.34;5072987;28;20709;-52
2023/10/12 04:54:31;;;;;;;13.63;5.57;;;;;;;10.61;100.00;64059.66;5073276;28;20253;-52
2023/10/12 04:59:43;;;;;;;9.27;6.33;;;;;;;11.20;100.00;64124.25;5073165;28;20211;-52
2023/10/12 05:09:37;;;;;;;10.93;6.23;;;;;;;11.04;100.00;64106.19;5072613;28;20243;-51
2023/10/12 05:12:04;;;;;;;11.83;6.30;;;;;;;11.24;100.00;64128.09;5071401;28;20255;-52
2023/10/12 05:14:31;;;;;;;9.07;5.80;;;;;;;11.19;100.00;64120.63;5072807;28;20169;-51
2023/10/12 05:16:57;;;;;;;10.83;5.83;;;;;;;11.20;100.00;64124.25;5072641;28;20302;-51
2023/10/12 05:19:24;;;;;;;9.40;6.07;;;;;;;11.20;100.00;64124.25;5071580;28;20204;-53
2023/10/12 05:21:50;;;;;;;8.83;5.40;;;;;;;11.11;100.00;64114.38;5072402;28;20217;-52
2023/10/12 05:24:16;;;;;;;15.63;5.20;;;;;;;11.15;100.00;64118.25;5072689;28;20208;-52
2023/10/12 05:26:51;;;;;;;14.80;6.43;;;;;;;11.25;100.00;64134.78;5072495;28;20223;-54
2023/10/12 05:32:06;;;;;;;13.23;6.70;;;;;;;11.75;100.00;64182.03;5071090;28;20238;-56
2023/10/12 05:34:44;;;;;;;10.63;5.50;;;;;;;11.36;100.00;64141.22;5070892;28;20201;-56
2023/10/12 05:39:50;;;;;;;15.27;6.73;;;;;;;10.55;100.00;64053.09;5071970;28;20291;-55
2023/10/12 05:42:20;;;;;;;11.77;5.57;;;;;;;10.55;100.00;64050.56;5072049;28;20238;-56
2023/10/12 05:44:48;;;;;;;13.97;6.37;;;;;;;10.60;100.00;64059.13;5071889;28;20249;-55
2023/10/12 05:47:15;;;;;;;13.23;5.50;;;;;;;10.74;100.00;64076.41;5071264;28;20299;-55
2023/10/12 05:49:41;;;;;;;10.60;5.53;;;;;;;10.81;100.00;64082.09;5068458;28;20299;-55
2023/10/12 05:52:11;;;;;;;10.53;4.60;;;;;;;10.83;100.00;64083.72;5070816;28;20311;-55
2023/10/12 05:54:40;;;;;;;10.80;5.43;;;;;;;10.83;100.00;64084.28;5070521;28;20184;-55
2023/10/12 05:57:25;;;;;;;12.83;5.40;;;;;;;10.91;100.00;64098.09;5071643;28;20314;-55
2023/10/12 05:59:50;;;;;;;13.77;5.90;;;;;;;10.96;100.00;64092.94;5071993;28;20678;-55
2023/10/12 06:02:19;;;;;;;12.67;6.90;;;;;;;10.85;100.00;64086.47;5071102;28;20221;-55
2023/10/12 06:04:45;;;;;;;13.23;7.33;;;;;;;10.65;100.00;64061.50;5071870;28;20211;-55
2023/10/12 06:07:11;;;;;;;12.63;7.50;;;;;;;10.58;100.00;64054.41;5070437;28;20223;-57
2023/10/12 06:09:38;;;;;;;14.90;7.27;;;;;;;10.60;100.00;64059.13;5053843;28;20200;-55
2023/10/12 06:12:09;;;;;;;21.00;8.27;;;;;;;10.67;100.00;64066.22;5070383;28;20599;-55
2023/10/12 06:14:39;;;;;;;14.40;7.47;;;;;;;10.71;100.00;64070.59;5071796;28;20204;-55
2023/10/12 06:17:06;;;;;;;12.80;6.97;;;;;;;10.78;100.00;64080.78;5070296;28;20287;-55
2023/10/12 06:19:35;;;;;;;14.30;7.77;;;;;;;10.95;100.00;64099.41;5071243;28;20205;-55
2023/10/12 06:22:13;;;;;;;16.03;7.67;;;;;;;11.03;100.00;64103.09;5071625;28;20221;-55
2023/10/12 06:24:44;;;;;;;16.57;7.77;;;;;;;10.84;100.00;64084.84;5071440;28;20253;-57
2023/10/12 06:29:53;;;;;;;16.40;8.00;;;;;;;10.90;100.00;64089.44;5071421;28;20215;-53
2023/10/12 06:32:19;;;;;;;20.53;7.80;;;;;;;10.98;100.00;64100.16;5069733;28;20312;-54
2023/10/12 06:43:52;;;;;;;11.60;7.13;;;;;;;11.57;100.00;64164.78;5070961;28;20217;-54
2023/10/12 06:45:46;;;;;;;16.73;7.40;;;;;;;11.53;100.00;64159.88;5070996;28;20673;-54
2023/10/12 06:51:17;;;;;;;14.53;7.67;;;;;;;11.77;99.51;64184.22;5070830;28;20281;-53
2023/10/12 06:54:06;;;;;;;13.87;7.87;;;;;;;12.00;98.46;64211.38;5070938;28;20207;-55
2023/10/12 06:56:32;;;;;;;13.70;7.07;;;;;;;11.99;98.12;64210.28;5069402;28;20220;-54
2023/10/12 06:59:08;;;;;;;15.23;8.07;;;;;;;12.17;98.86;64226.94;5070729;28;20204;-54
2023/10/12 07:04:14;;;;;;;14.70;8.00;;;;;;;12.16;96.85;64226.41;5070997;28;20231;-53
2023/10/12 07:06:48;;;;;;;17.23;7.60;;;;;;;12.26;95.92;64236.81;5071375;28;20209;-54
2023/10/12 07:09:14;;;;;;;12.85;8.00;;;;;;;12.33;94.71;64244.50;5071004;28;20230;-54
2023/10/12 07:11:40;;;;;;;11.60;7.03;;;;;;;12.47;94.27;64262.94;5070995;28;21411;-53
2023/10/12 07:14:06;;;;;;;14.40;8.40;;;;;;;12.55;94.09;64269.16;5069728;28;20208;-54
2023/10/12 07:16:40;;;;;;;15.20;7.13;;;;;;;12.56;93.84;64272.25;5070361;28;20224;-53
2023/10/12 07:19:06;;;;;;;14.43;7.05;;;;;;;13.01;89.94;64321.59;5070667;28;20205;-55
2023/10/12 07:21:32;;;;;;;11.25;6.68;;;;;;;12.93;92.84;64312.81;5070595;28;20265;-54
2023/10/12 07:23:57;;;;;;;14.02;8.10;;;;;;;12.70;92.48;64290.13;5070363;28;20581;-54
2023/10/12 07:26:30;;;;;;;9.83;6.63;;;;;;;12.82;93.35;64298.25;5069751;28;20216;-55
2023/10/12 07:28:57;;;;;;;15.83;7.50;;;;;;;12.88;91.66;64307.34;5069847;28;20585;-55
2023/10/12 07:34:13;;;;;;;13.05;7.80;;;;;;;13.12;90.95;64331.19;5070415;28;20585;-56
2023/10/12 07:39:23;;;;;;;15.77;7.13;;;;;;;13.41;88.32;64363.00;5070371;28;20215;-55
2023/10/12 07:41:56;;;;;;;12.23;6.97;;;;;;;13.51;89.18;64372.88;5070456;28;20224;-55
2023/10/12 07:44:23;;;;;;;10.57;7.00;;;;;;;13.81;87.83;64410.88;5070615;28;20204;-56
2023/10/12 07:46:49;;;;;;;13.73;7.20;;;;;;;13.78;86.52;64402.50;5070553;28;20208;-55
2023/10/12 07:49:27;;;;;;;13.70;6.55;;;;;;;13.72;85.93;64398.47;5070384;28;20196;-55
2023/10/12 07:52:22;;;;;;;10.32;6.32;;;;;;;14.02;83.90;64431.97;5068752;28;20224;-53
2023/10/12 07:57:18;;;;;;;10.15;6.30;;;;;;;14.22;83.32;64453.94;5070421;28;20211;-55
2023/10/12 08:21:31;;;;;;;11.48;7.28;;;;;;;15.62;71.75;64604.25;5006619;28;20253;-56
2023/10/12 08:24:36;;;;;;;15.02;6.95;;;;;;;15.73;71.71;64618.91;5054263;28;20236;-55
2023/10/12 08:26:57;;;;;;;13.52;7.22;;;;;;;16.28;69.67;64673.22;5068942;28;20273;-56
2023/10/12 08:31:55;;;;;;;9.75;6.47;;;;;;;17.19;67.89;64775.47;5073325;28;20254;-56
2023/10/12 08:40:27;;;;;;;12.88;6.50;;;;;;;17.91;63.77;64851.72;5073068;28;20197;-56
2023/10/12 08:45:15;;;;;;;8.52;6.07;;;;;;;18.03;61.29;64865.50;5073031;28;20201;-56
2023/10/12 08:47:49;;;;;;;10.48;6.03;;;;;;;18.73;60.86;64944.72;5055890;28;20224;-55
2023/10/12 08:52:53;;;;;;;11.38;6.20;;;;;;;18.33;59.61;64898.59;5073269;28;20205;-56
2023/10/12 08:55:24;;;;;;;13.70;6.45;;;;;;;18.91;58.82;64961.47;5072869;28;20196;-56
2023/10/12 08:57:55;;;;;;;8.95;5.90;;;;;;;19.64;57.87;65038.97;5073051;28;20213;-57
2023/10/12 09:03:04;;;;;;;10.73;6.75;;;;;;;20.26;52.51;65112.59;5072914;28;20209;-56
2023/10/12 09:05:31;;;;;;;12.30;5.68;;;;;;;20.53;52.92;65137.31;5071365;28;20228;-55
2023/10/12 09:10:51;;;;;;;7.57;4.65;;;;;;;21.13;52.19;65207.69;5072664;28;20216;-56
2023/10/12 09:13:28;;;;;;;13.07;5.28;;;;;;;21.45;52.82;65241.03;5072554;28;20212;-56
2023/10/12 09:15:56;;;;;;;9.48;5.80;;;;;;;21.52;49.10;65248.78;5072327;28;20291;-56
2023/10/12 09:18:57;;;;;;;10.13;5.82;;;;;;;21.60;50.89;65257.09;5072598;28;20225;-56
2023/10/12 09:23:50;;;;;;;9.40;5.65;;;;;;;22.04;48.75;65307.81;5072500;28;20192;-53
2023/10/12 09:26:19;;;;;;;14.40;6.22;;;;;;;22.25;48.41;65331.59;5071323;28;20569;-58
2023/10/12 09:36:29;;;;;;;26.58;6.25;;;;;;;20.69;50.56;65157.00;5071125;28;20216;-58
2023/10/12 09:39:00;;;;;;;12.57;5.55;;;;;;;21.45;48.98;65243.06;5072161;28;20194;-57
2023/10/12 09:41:33;;;;;;;11.48;5.40;;;;;;;20.86;48.81;65176.34;5072200;28;20217;-58
2023/10/12 09:44:06;;;;;;;9.05;5.45;;;;;;;20.85;49.69;65172.69;5072178;28;20705;-57
2023/10/12 09:46:33;;;;;;;9.40;5.57;;;;;;;20.98;51.11;65191.06;5070909;28;20239;-56
2023/10/12 09:49:08;;;;;;;9.55;5.68;;;;;;;21.79;47.07;65280.13;5072027;28;20211;-55
2023/10/12 09:51:47;;;;;;;18.42;4.68;;;;;;;22.44;46.92;65349.53;5071859;28;20220;-53
2023/10/12 09:54:27;;;;;;;9.40;4.32;;;;;;;23.21;50.86;65434.25;5071848;28;20207;-54
2023/10/12 09:57:16;;;;;;;10.10;5.05;;;;;;;23.63;46.77;65480.81;5072219;28;20346;-53
2023/10/12 09:59:51;;;;;;;9.18;5.82;;;;;;;23.48;44.10;65463.63;5070739;28;20193;-54
2023/10/12 10:02:28;;;;;;;7.90;5.03;;;;;;;23.75;45.51;65493.56;5071535;28;20219;-54
2023/10/12 10:05:11;;;;;;;10.70;4.65;;;;;;;23.97;45.36;65518.50;5070715;28;20196;-54
2023/10/12 10:08:17;;;;;;;13.82;5.22;;;;;;;24.19;45.93;65542.34;5071897;28;20720;-57
2023/10/12 10:10:45;;;;;;;10.35;4.85;;;;;;;24.41;44.44;65566.19;4990426;28;20214;-55
2023/10/12 10:13:46;;;;;;;11.10;5.10;;;;;;;24.45;42.32;65568.06;5058182;28;20252;-56
2023/10/12 10:16:19;;;;;;;8.98;4.53;;;;;;;24.22;42.95;65548.25;5069997;28;20239;-56
2023/10/12 10:18:46;;;;;;;10.70;4.95;;;;;;;23.82;42.28;65498.72;5071663;28;20196;-56
2023/10/12 10:21:15;;;;;;;8.93;4.93;;;;;;;23.50;44.12;65466.41;5071434;28;20651;-56
2023/10/12 10:23:48;;;;;;;9.88;4.55;;;;;;;23.71;43.09;65489.13;5071374;28;20197;-55
2023/10/12 10:26:20;;;;;;;12.32;4.70;;;;;;;23.86;41.60;65506.31;5071362;28;20295;-56
2023/10/12 10:29:04;;;;;;;9.80;5.28;;;;;;;23.68;41.50;65486.34;5071397;28;20192;-56
2023/10/12 10:31:41;;;;;;;8.95;4.40;;;;;;;23.75;43.35;65494.13;5071631;28;20220;-54
2023/10/12 10:34:16;;;;;;;8.27;4.68;;;;;;;24.22;43.71;65542.56;5069984;28;20215;-57
2023/10/12 10:36:52;;;;;;;11.20;4.45;;;;;;;24.33;42.58;65557.88;5069894;28;20217;-54
2023/10/12 10:41:54;;;;;;;10.45;4.35;;;;;;;23.75;43.39;65491.53;5071333;28;20212;-55
2023/10/12 10:44:22;;;;;;;5.93;4.10;;;;;;;24.12;41.22;65532.56;5069757;28;20200;-55
2023/10/12 10:46:54;;;;;;;6.18;4.25;;;;;;;23.63;42.00;65480.25;5069085;28;20213;-56
2023/10/12 10:49:20;;;;;;;9.50;4.05;;;;;;;23.82;41.98;65501.88;5069963;28;20201;-55
2023/10/12 10:51:48;;;;;;;10.38;3.80;;;;;;;23.99;42.14;65523.31;5071160;28;20278;-55
2023/10/12 10:54:18;;;;;;;6.97;3.83;;;;;;;24.54;43.00;65578.59;5071061;28;20700;-57
2023/10/12 10:56:49;;;;;;;7.90;4.15;;;;;;;24.04;40.97;65525.72;5069890;28;20303;-56
2023/10/12 10:59:18;;;;;;;6.30;3.85;;;;;;;24.39;41.32;65563.97;5071069;28;20245;-56
2023/10/12 11:01:48;;;;;;;8.27;4.07;;;;;;;24.63;41.14;65588.00;5069351;28;20212;-56
2023/10/12 11:07:17;;;;;;;8.27;4.22;;;;;;;24.83;40.42;65615.38;5071271;28;20212;-54
2023/10/12 11:12:21;;;;;;;7.45;4.70;;;;;;;25.14;39.74;65644.06;5071373;28;20216;-55
2023/10/12 11:15:00;;;;;;;7.28;3.95;;;;;;;25.30;39.77;65664.41;5069764;28;20274;-52
2023/10/12 11:17:40;;;;;;;9.23;4.15;;;;;;;25.15;39.26;65645.19;5070559;28;20213;-55
2023/10/12 11:20:27;;;;;;;6.20;4.35;;;;;;;24.66;40.15;65591.34;5070632;28;20228;-54
2023/10/12 11:22:55;;;;;;;8.75;4.60;;;;;;;24.58;41.12;65583.03;5070507;28;20205;-58
2023/10/12 11:25:21;;;;;;;7.88;3.53;;;;;;;25.27;39.20;65661.63;5069397;28;20558;-57
2023/10/12 11:27:46;;;;;;;10.48;4.00;;;;;;;25.12;40.20;65644.44;5069389;28;20266;-55
2023/10/12 11:30:19;;;;;;;7.13;4.15;;;;;;;24.67;40.01;65595.03;5070422;28;20266;-55
2023/10/12 11:32:53;;;;;;;6.78;4.15;;;;;;;24.95;40.22;65624.09;5069162;28;20224;-56
2023/10/12 11:35:41;;;;;;;7.32;4.22;;;;;;;25.14;39.66;65644.63;5070481;28;20211;-57
2023/10/12 11:38:18;;;;;;;7.03;4.57;;;;;;;25.75;39.92;65711.81;5071005;28;20578;-55
2023/10/12 11:40:52;;;;;;;8.63;4.22;;;;;;;25.19;39.41;65652.19;5070224;28;20196;-55
2023/10/12 11:43:26;;;;;;;12.18;4.95;;;;;;;24.77;39.45;65604.13;5070345;28;20216;-53
2023/10/12 11:46:05;;;;;;;10.35;4.53;;;;;;;24.54;39.16;65581.19;5070134;28;20197;-56
2023/10/12 11:48:31;;;;;;;8.18;4.20;;;;;;;24.64;39.28;65594.84;5070314;28;20200;-53
2023/10/12 11:50:58;;;;;;;11.07;4.07;;;;;;;24.42;40.10;65565.28;5070051;28;20208;-54
2023/10/12 11:53:28;;;;;;;13.93;4.85;;;;;;;25.08;40.55;65640.53;5069931;28;20219;-53
2023/10/12 11:56:22;;;;;;;12.05;4.55;;;;;;;25.44;40.13;65680.53;5067772;28;20288;-53
2023/10/12 11:58:55;;;;;;;11.63;4.20;;;;;;;25.63;39.39;65701.06;5069023;28;20205;-57
2023/10/12 12:01:29;;;;;;;13.07;4.72;;;;;;;25.80;38.84;65717.34;5073797;28;20745;-56
2023/10/12 12:03:56;;;;;;;10.63;4.63;;;;;;;25.94;38.63;65730.31;5073587;28;20196;-55
2023/10/12 12:06:32;;;;;;;8.65;4.05;;;;;;;26.07;38.84;65746.78;5073595;28;20220;-56
2023/10/12 12:09:07;;;;;;;6.25;4.05;;;;;;;26.26;37.47;65770.50;5073545;28;20211;-55
2023/10/12 12:11:37;;;;;;;25.70;6.18;;;;;;;25.70;37.58;65706.81;5072122;28;20224;-56
2023/10/12 12:14:06;;;;;;;9.68;4.10;;;;;;;25.55;38.10;65689.59;5073409;28;20197;-55
2023/10/12 12:16:34;;;;;;;10.38;4.28;;;;;;;26.09;38.69;65747.00;5072157;28;20290;-56
2023/10/12 12:19:00;;;;;;;8.70;3.83;;;;;;;26.08;38.32;65750.50;5073429;28;20694;-53
2023/10/12 12:21:34;;;;;;;9.77;3.85;;;;;;;26.18;37.44;65759.56;5073597;28;20217;-57
2023/10/12 12:26:45;;;;;;;10.68;4.13;;;;;;;25.61;37.98;65701.97;5073431;28;20255;-54
2023/10/12 12:29:11;;;;;;;7.68;4.05;;;;;;;25.61;37.72;65698.84;5073360;28;20633;-54
2023/10/12 12:31:38;;;;;;;4.50;3.97;;;;;;;25.94;37.29;65732.88;5073009;28;20217;-53
2023/10/12 12:34:07;;;;;;;12.10;4.45;;;;;;;26.27;37.34;65771.59;5071791;28;20209;-53
2023/10/12 12:36:33;;;;;;;9.77;3.92;;;;;;;26.08;37.22;65751.03;5073070;28;20282;-56
2023/10/12 12:39:25;;;;;;;7.22;3.78;;;;;;;26.17;37.85;65761.03;5071835;28;20203;-53
2023/10/12 12:41:45;;;;;;;7.20;3.95;;;;;;;26.25;38.22;65767.34;5072517;28;20220;-54
2023/10/12 12:44:11;;;;;;;6.45;3.05;;;;;;;26.47;38.25;65789.19;5072904;28;20275;-58
2023/10/12 12:46:37;;;;;;;11.73;4.18;;;;;;;26.45;36.81;65792.16;5072812;28;20216;-51
2023/10/12 12:49:06;;;;;;;6.82;4.47;;;;;;;26.20;37.62;65758.66;5070047;28;20189;-53
2023/10/12 12:51:32;;;;;;;6.28;3.72;;;;;;;25.90;37.27;65727.91;5072484;28;20315;-54
2023/10/12 12:54:02;;;;;;;7.25;3.42;;;;;;;25.93;37.07;65733.81;5071530;28;20300;-53
2023/10/12 12:56:29;;;;;;;8.55;3.20;;;;;;;25.48;37.58;65684.41;5073031;28;20299;-54
2023/10/12 12:58:54;;;;;;;4.80;3.38;;;;;;;25.23;37.40;65654.06;5071356;28;20215;-53
2023/10/12 13:01:24;;;;;;;4.53;3.40;;;;;;;24.80;37.93;65606.91;5079407;22;20208;-53
2023/10/12 13:03:56;;;;;;;6.47;3.58;;;;;;;25.49;38.17;65685.53;5030123;28;20234;-53
2023/10/12 13:06:24;;;;;;;12.50;4.97;;;;;;;25.85;38.46;65722.91;5031451;28;20218;-55
2023/10/12 13:08:50;;;;;;;8.52;4.28;;;;;;;25.83;39.07;65723.25;5032586;28;20210;-54
2023/10/12 13:11:20;;;;;;;14.43;3.85;;;;;;;25.97;38.66;65736.22;5032447;28;20225;-53
2023/10/12 13:13:47;;;;;;;11.38;3.90;;;;;;;26.12;38.54;65752.91;5031258;28;20237;-56
2023/10/12 13:16:14;;;;;;;7.30;3.88;;;;;;;26.10;37.42;65750.13;5031152;28;20242;-55
2023/10/12 13:18:46;;;;;;;5.10;3.83;;;;;;;26.03;38.26;65745.47;5031245;28;20198;-54
2023/10/12 13:21:15;;;;;;;8.57;3.90;;;;;;;26.08;38.56;65750.50;5031431;28;20244;-54
2023/10/12 13:23:43;;;;;;;7.90;3.67;;;;;;;26.01;38.12;65740.66;5047677;28;20263;-57
2023/10/12 13:26:10;;;;;;;11.18;3.88;;;;;;;25.89;38.79;65727.34;5047523;28;20301;-57
2023/10/12 13:28:37;;;;;;;4.10;3.30;;;;;;;25.62;37.96;65699.94;5032060;28;20403;-54
2023/10/12 13:31:05;;;;;;;4.45;3.22;;;;;;;25.67;38.64;65703.47;5030717;28;20289;-54
2023/10/12 13:33:32;;;;;;;6.47;4.07;;;;;;;25.66;37.69;65701.78;5047387;28;20237;-55
2023/10/12 13:35:58;;;;;;;4.97;3.50;;;;;;;24.82;39.03;65609.69;5031019;28;20202;-55
2023/10/12 13:38:24;;;;;;;7.75;3.67;;;;;;;25.25;39.37;65658.84;5031961;28;20214;-54
2023/10/12 13:40:50;;;;;;;7.28;4.13;;;;;;;25.62;38.39;65699.94;5031711;28;20214;-53
2023/10/12 13:43:21;;;;;;;6.15;3.83;;;;;;;25.63;37.71;65698.47;5030126;28;20351;-54
2023/10/12 13:45:49;;;;;;;9.45;3.80;;;;;;;25.40;37.78;65675.50;5031991;28;20293;-54
2023/10/12 13:48:25;;;;;;;10.85;3.95;;;;;;;25.42;38.44;65675.72;5030716;28;20240;-54
2023/10/12 13:51:04;;;;;;;5.85;3.47;;;;;;;25.04;38.15;65635.53;5031844;28;20206;-54
2023/10/12 13:53:36;;;;;;;7.50;3.95;;;;;;;24.74;39.20;65600.81;5030736;28;20714;-54
2023/10/12 13:56:08;;;;;;;9.65;3.90;;;;;;;24.48;39.50;65571.38;5047310;28;20259;-54
2023/10/12 13:58:42;;;;;;;7.18;4.15;;;;;;;24.10;39.83;65529.78;5046897;28;20206;-54
2023/10/12 14:01:14;;;;;;;13.85;3.88;;;;;;;24.20;40.19;65540.88;5031689;28;20692;-54
2023/10/12 14:03:55;;;;;;;10.10;4.10;;;;;;;24.51;40.55;65577.84;5031719;28;20214;-57
2023/10/12 14:06:24;;;;;;;5.18;3.47;;;;;;;24.34;39.87;65558.97;5031781;28;20216;-54
2023/10/12 14:08:51;;;;;;;10.70;3.85;;;;;;;24.27;40.37;65551.22;5031613;28;20285;-54
2023/10/12 14:11:18;;;;;;;9.05;3.97;;;;;;;24.50;39.93;65574.16;5031220;28;20221;-55
2023/10/12 14:13:44;;;;;;;11.25;4.35;;;;;;;24.36;40.30;65558.63;5031602;28;20178;-54
2023/10/12 14:16:12;;;;;;;7.60;3.58;;;;;;;24.40;39.67;65565.09;5031810;28;20730;-57
2023/10/12 14:18:39;;;;;;;9.90;4.10;;;;;;;24.43;39.99;65563.81;5031722;28;20202;-54
2023/10/12 14:21:11;;;;;;;9.70;3.95;;;;;;;24.40;39.47;65565.09;5030202;28;20275;-54
2023/10/12 14:23:43;;;;;;;6.72;4.00;;;;;;;24.20;39.86;65543.47;5046168;28;20206;-54
2023/10/12 14:26:22;;;;;;;7.60;3.90;;;;;;;24.16;39.92;65539.03;5047050;28;20305;-54